createdAt,value
2018-06-27T02:53:01.934Z,83.73
2018-06-27T02:56:44.131Z,83.02
2018-06-27T04:12:05.810Z,83.67
2018-06-27T04:56:36.526Z,83.98
2018-06-27T05:30:33.679Z,81.96
2018-06-27T06:34:49.229Z,70.32
2018-06-27T07:07:21.021Z,65.11
2018-06-27T07:10:25.777Z,64.63
2018-06-27T07:12:57.261Z,63.03
2018-06-27T07:26:44.179Z,62.30
2018-06-27T07:33:28.404Z,64.80
2018-06-27T07:36:07.307Z,64.51
2018-06-27T07:39:21.297Z,64.09
2018-06-27T07:41:51.460Z,62.83
2018-06-27T07:44:57.376Z,62.06
2018-06-27T07:47:28.151Z,62.43
2018-06-27T07:50:03.500Z,63.02
2018-06-27T07:52:43.135Z,62.74
2018-06-27T07:55:15.382Z,62.79
2018-06-27T08:02:08.494Z,61.90
2018-06-27T08:05:57.806Z,60.88
2018-06-27T08:08:28.749Z,59.96
2018-06-27T08:10:58.803Z,59.00
2018-06-27T08:13:30.414Z,59.79
2018-06-27T08:16:04.457Z,60.77
2018-06-27T08:18:49.102Z,60.80
2018-06-27T08:21:34.328Z,60.95
2018-06-27T08:24:04.004Z,59.82
2018-06-27T08:26:48.424Z,60.17
2018-06-27T08:33:20.285Z,57.48
2018-06-27T08:35:56.693Z,58.61
2018-06-27T08:38:30.480Z,59.02
2018-06-27T08:41:15.972Z,58.49
2018-06-27T08:43:50.542Z,57.61
2018-06-27T08:46:19.433Z,58.29
2018-06-27T08:51:36.524Z,57.39
2018-06-27T08:54:06.611Z,57.48
2018-06-27T08:56:35.296Z,56.79
2018-06-27T08:59:06.024Z,57.00
2018-06-27T09:01:34.685Z,56.15
2018-06-27T09:04:03.421Z,55.67
2018-06-27T09:06:32.303Z,55.48
2018-06-27T09:09:02.115Z,55.30
2018-06-27T09:11:33.063Z,54.91
2018-06-27T09:14:02.861Z,54.02
2018-06-27T09:16:31.595Z,54.70
2018-06-27T09:19:00.478Z,52.74
2018-06-27T09:21:31.153Z,53.71
2018-06-27T09:23:59.853Z,52.76
2018-06-27T09:26:28.541Z,51.79
2018-06-27T09:28:57.213Z,52.44
2018-06-27T09:31:25.904Z,52.64
2018-06-27T09:33:55.831Z,52.70
2018-06-27T09:36:37.614Z,51.45
2018-06-27T09:39:09.441Z,51.20
2018-06-27T09:41:39.355Z,49.14
2018-06-27T09:44:16.964Z,50.66
2018-06-27T09:46:45.860Z,51.19
2018-06-27T09:49:14.649Z,50.46
2018-06-27T09:51:43.281Z,51.37
2018-06-27T09:54:12.028Z,51.60
2018-06-27T09:56:43.788Z,52.86
2018-06-27T09:59:13.628Z,51.88
2018-06-27T10:01:43.739Z,52.56
2018-06-27T10:04:12.667Z,52.07
2018-06-27T10:06:41.684Z,53.15
2018-06-27T10:09:12.889Z,52.69
2018-06-27T10:11:41.973Z,52.38
2018-06-27T10:14:10.909Z,52.07
2018-06-27T10:16:43.531Z,51.75
2018-06-27T10:19:13.340Z,52.33
2018-06-27T10:21:47.069Z,52.42
2018-06-27T10:24:16.102Z,52.34
2018-06-27T10:26:49.442Z,52.93
2018-06-27T10:29:20.432Z,52.88
2018-06-27T10:31:49.521Z,52.94
2018-06-27T10:34:18.640Z,52.93
2018-06-27T10:36:48.512Z,52.60
2018-06-27T10:39:19.428Z,52.62
2018-06-27T10:41:48.610Z,52.24
2018-06-27T10:44:17.647Z,51.39
2018-06-27T10:46:47.898Z,50.86
2018-06-27T10:49:17.059Z,50.49
2018-06-27T10:51:46.069Z,51.19
2018-06-27T10:54:15.179Z,51.54
2018-06-27T10:56:49.961Z,51.37
2018-06-27T10:59:20.108Z,50.34
2018-06-27T11:01:50.722Z,50.35
2018-06-27T11:04:19.715Z,51.02
2018-06-27T11:06:53.933Z,50.53
2018-06-27T11:12:55.462Z,50.62
2018-06-27T11:15:25.799Z,49.51
2018-06-27T11:17:54.947Z,51.11
2018-06-27T11:20:32.323Z,52.45
2018-06-27T11:25:50.166Z,51.42
2018-06-27T11:28:24.107Z,52.02
2018-06-27T11:31:51.280Z,51.37
2018-06-27T11:34:20.762Z,50.63
2018-06-27T11:37:03.712Z,50.69
2018-06-27T11:40:07.783Z,49.59
2018-06-27T11:42:36.843Z,50.64
2018-06-27T11:45:06.522Z,48.89
2018-06-27T11:47:37.359Z,49.89
2018-06-27T11:53:21.686Z,51.03
2018-06-27T11:55:51.704Z,51.63
2018-06-27T11:58:49.143Z,51.54
2018-06-27T12:06:42.141Z,51.95
2018-06-27T12:09:34.725Z,51.92
2018-06-27T12:12:10.211Z,52.03
2018-06-27T12:14:39.242Z,52.01
2018-06-27T12:17:08.419Z,51.33
2018-06-27T12:19:37.535Z,52.21
2018-06-27T12:22:06.715Z,50.25
2018-06-27T12:24:35.837Z,49.93
2018-06-27T12:27:04.895Z,48.29
2018-06-27T12:29:34.185Z,48.32
2018-06-27T12:32:03.396Z,48.37
2018-06-27T12:34:35.458Z,45.29
2018-06-27T12:37:04.450Z,47.69
2018-06-27T12:39:33.340Z,47.60
2018-06-27T12:42:02.223Z,48.47
2018-06-27T12:44:41.004Z,48.63
2018-06-27T12:47:09.708Z,47.06
2018-06-27T12:49:40.823Z,47.38
2018-06-27T12:52:09.517Z,46.91
2018-06-27T12:54:38.252Z,47.11
2018-06-27T12:57:07.445Z,46.08
2018-06-27T12:59:36.562Z,46.61
2018-06-27T13:02:05.663Z,47.30
2018-06-27T13:04:35.987Z,47.22
2018-06-27T13:07:05.003Z,47.65
2018-06-27T13:09:34.045Z,46.88
2018-06-27T13:12:03.486Z,48.27
2018-06-27T13:14:32.725Z,48.43
2018-06-27T13:17:03.118Z,48.52
2018-06-27T13:19:33.115Z,48.81
2018-06-27T13:22:02.273Z,48.49
2018-06-27T13:24:34.893Z,47.11
2018-06-27T13:27:25.455Z,45.82
2018-06-27T13:29:54.495Z,46.70
2018-06-27T13:32:23.695Z,47.11
2018-06-27T13:34:52.657Z,46.44
2018-06-27T13:37:21.513Z,45.61
2018-06-27T13:39:50.300Z,46.42
2018-06-27T13:42:19.053Z,47.19
2018-06-27T13:44:48.088Z,46.85
2018-06-27T13:47:18.441Z,47.94
2018-06-27T13:49:48.506Z,48.16
2018-06-27T13:52:23.904Z,48.74
2018-06-27T13:54:57.185Z,49.00
2018-06-27T13:57:27.478Z,50.37
2018-06-27T13:59:58.463Z,49.66
2018-06-27T14:02:27.296Z,50.62
2018-06-27T14:04:56.329Z,50.75
2018-06-27T14:07:25.497Z,51.66
2018-06-27T14:09:55.147Z,51.09
2018-06-27T14:12:24.954Z,51.75
2018-06-27T14:14:58.472Z,51.97
2018-06-27T14:17:30.221Z,51.24
2018-06-27T14:19:59.215Z,50.87
2018-06-27T14:22:31.203Z,49.69
2018-06-27T14:25:00.241Z,49.84
2018-06-27T14:27:31.246Z,48.91
2018-06-27T14:30:00.295Z,48.51
2018-06-27T14:32:29.090Z,48.19
2018-06-27T14:34:59.714Z,47.58
2018-06-27T14:37:28.817Z,47.47
2018-06-27T14:39:57.807Z,47.72
2018-06-27T14:42:26.839Z,48.29
2018-06-27T14:44:55.745Z,47.73
2018-06-27T14:47:24.660Z,47.00
2018-06-27T14:49:53.861Z,47.51
2018-06-27T14:52:23.011Z,47.53
2018-06-27T14:54:52.174Z,47.54
2018-06-27T14:57:21.214Z,46.83
2018-06-27T14:59:50.217Z,47.86
2018-06-27T15:02:19.262Z,48.42
2018-06-27T15:04:48.078Z,48.80
2018-06-27T15:07:16.907Z,48.21
2018-06-27T15:09:45.585Z,47.52
2018-06-27T15:12:14.306Z,47.37
2018-06-27T15:14:43.220Z,46.98
2018-06-27T15:17:13.771Z,47.01
2018-06-27T15:19:50.169Z,45.90
2018-06-27T15:22:19.366Z,45.74
2018-06-27T15:24:48.305Z,45.76
2018-06-27T15:27:18.006Z,45.05
2018-06-27T15:29:47.011Z,45.41
2018-06-27T15:32:16.054Z,45.82
2018-06-27T15:34:45.047Z,47.39
2018-06-27T15:37:14.539Z,48.00
2018-06-27T15:39:46.142Z,48.98
2018-06-27T15:42:15.059Z,49.39
2018-06-27T15:44:44.716Z,49.62
2018-06-27T15:47:18.593Z,49.94
2018-06-27T15:49:47.599Z,50.64
2018-06-27T15:52:16.871Z,50.91
2018-06-27T15:54:46.835Z,51.02
2018-06-27T15:57:16.949Z,50.57
2018-06-27T15:59:51.750Z,51.11
2018-06-27T16:02:20.655Z,51.13
2018-06-27T16:04:49.655Z,50.97
2018-06-27T16:07:19.256Z,50.26
2018-06-27T16:09:49.578Z,49.77
2018-06-27T16:12:21.434Z,51.05
2018-06-27T16:14:50.484Z,50.82
2018-06-27T16:17:25.537Z,51.12
2018-06-27T16:19:54.130Z,51.21
2018-06-27T16:22:23.028Z,50.94
2018-06-27T16:24:52.593Z,50.40
2018-06-27T16:30:11.766Z,49.27
2018-06-27T16:32:40.501Z,48.97
2018-06-27T16:35:10.130Z,49.68
2018-06-27T16:37:46.121Z,49.65
2018-06-27T16:40:16.177Z,49.85
2018-06-27T16:42:45.182Z,49.96
2018-06-27T16:45:17.912Z,49.95
2018-06-27T16:47:47.124Z,49.72
2018-06-27T16:50:16.144Z,49.73
2018-06-27T16:52:45.202Z,49.58
2018-06-27T16:55:15.334Z,50.04
2018-06-27T16:57:44.413Z,50.64
2018-06-27T17:00:13.432Z,50.39
2018-06-27T17:02:42.199Z,50.72
2018-06-27T17:05:17.581Z,50.97
2018-06-27T17:07:46.344Z,50.86
2018-06-27T17:10:15.068Z,50.62
2018-06-27T17:12:44.638Z,50.99
2018-06-27T17:15:19.460Z,50.28
2018-06-27T17:17:54.783Z,53.88
2018-06-27T17:20:23.986Z,55.69
2018-06-27T17:22:53.136Z,56.51
2018-06-27T17:26:11.549Z,57.31
2018-06-27T17:28:43.709Z,59.21
2018-06-27T17:31:14.094Z,60.19
2018-06-27T17:33:43.275Z,62.50
2018-06-27T17:36:12.183Z,64.14
2018-06-27T17:38:41.077Z,65.92
2018-06-27T17:41:09.961Z,67.01
2018-06-27T17:43:38.643Z,69.69
2018-06-27T17:46:07.374Z,70.17
2018-06-27T17:48:36.222Z,70.79
2018-06-27T17:51:05.363Z,70.59
2018-06-27T17:53:34.476Z,71.15
2018-06-27T17:56:29.199Z,72.46
2018-06-27T17:59:30.042Z,73.07
2018-06-27T18:02:04.775Z,73.95
2018-06-27T18:04:34.607Z,74.18
2018-06-27T18:07:05.101Z,74.54
2018-06-27T18:09:35.594Z,75.08
2018-06-27T18:12:05.038Z,75.79
2018-06-27T18:17:13.288Z,76.84
2018-06-27T18:19:45.714Z,77.34
2018-06-27T18:22:20.328Z,78.11
2018-06-27T18:24:50.012Z,77.63
2018-06-27T18:27:20.225Z,77.17
2018-06-27T18:30:02.615Z,78.30
2018-06-27T18:33:11.435Z,78.43
2018-06-27T18:35:53.976Z,79.06
2018-06-27T18:39:24.585Z,79.54
2018-06-27T18:41:56.385Z,80.35
2018-06-27T18:44:43.305Z,79.92
2018-06-27T18:47:23.217Z,79.88
2018-06-27T18:50:07.387Z,79.90
2018-06-27T18:52:36.764Z,80.12
2018-06-27T18:55:15.825Z,80.44
2018-06-27T18:58:04.630Z,81.05
2018-06-27T19:00:39.670Z,81.28
2018-06-27T20:45:41.466Z,77.25
2018-06-27T22:55:14.871Z,82.57
2018-06-27T23:02:57.063Z,82.69
2018-06-27T23:08:31.967Z,82.97
2018-06-27T23:11:17.412Z,81.93
2018-06-27T23:13:52.954Z,81.26
2018-06-27T23:16:26.522Z,81.35
2018-06-27T23:22:27.937Z,80.61
2018-06-27T23:25:02.585Z,80.19
2018-06-27T23:27:33.757Z,80.61
2018-06-27T23:37:35.024Z,80.35
2018-06-27T23:43:30.242Z,81.53
